sensor_id;sensor_type;location;lat;lon;timestamp;P1;durP1;ratioP1;P2;durP2;ratioP2
29984;SDS011;17387;42.690;23.328;2022-07-29T00:00:59;13.90;;;12.43;;
29984;SDS011;17387;42.690;23.328;2022-07-29T00:03:25;14.48;;;12.68;;
29984;SDS011;17387;42.690;23.328;2022-07-29T00:05:51;13.65;;;12.25;;
29984;SDS011;17387;42.690;23.328;2022-07-29T00:08:18;13.45;;;12.05;;
29984;SDS011;17387;42.690;23.328;2022-07-29T00:10:44;14.05;;;12.55;;
29984;SDS011;17387;42.690;23.328;2022-07-29T00:13:10;15.25;;;13.07;;
29984;SDS011;17387;42.690;23.328;2022-07-29T00:15:35;15.23;;;12.98;;
29984;SDS011;17387;42.690;23.328;2022-07-29T00:18:01;14.43;;;12.05;;
29984;SDS011;17387;42.690;23.328;2022-07-29T00:20:26;14.38;;;12.13;;
29984;SDS011;17387;42.690;23.328;2022-07-29T00:22:52;13.88;;;12.30;;
29984;SDS011;17387;42.690;23.328;2022-07-29T00:25:18;13.55;;;12.02;;
29984;SDS011;17387;42.690;23.328;2022-07-29T00:27:43;14.57;;;12.68;;
29984;SDS011;17387;42.690;23.328;2022-07-29T00:30:11;14.18;;;12.68;;
29984;SDS011;17387;42.690;23.328;2022-07-29T00:32:37;13.63;;;12.10;;
29984;SDS011;17387;42.690;23.328;2022-07-29T00:35:02;15.82;;;12.52;;
29984;SDS011;17387;42.690;23.328;2022-07-29T00:37:47;12.52;;;11.23;;
29984;SDS011;17387;42.690;23.328;2022-07-29T00:40:12;13.20;;;11.82;;
29984;SDS011;17387;42.690;23.328;2022-07-29T00:42:48;14.40;;;12.00;;
29984;SDS011;17387;42.690;23.328;2022-07-29T00:45:15;13.65;;;12.25;;
29984;SDS011;17387;42.690;23.328;2022-07-29T00:47:41;14.45;;;12.35;;
29984;SDS011;17387;42.690;23.328;2022-07-29T00:50:08;14.30;;;12.80;;
29984;SDS011;17387;42.690;23.328;2022-07-29T00:52:36;19.50;;;15.30;;
29984;SDS011;17387;42.690;23.328;2022-07-29T00:55:03;18.65;;;16.17;;
29984;SDS011;17387;42.690;23.328;2022-07-29T00:57:31;20.63;;;18.00;;
29984;SDS011;17387;42.690;23.328;2022-07-29T00:59:57;22.00;;;18.27;;
29984;SDS011;17387;42.690;23.328;2022-07-29T01:02:22;24.35;;;19.25;;
29984;SDS011;17387;42.690;23.328;2022-07-29T01:04:48;21.70;;;19.13;;
29984;SDS011;17387;42.690;23.328;2022-07-29T01:07:14;21.98;;;19.42;;
29984;SDS011;17387;42.690;23.328;2022-07-29T01:09:40;23.92;;;18.85;;
29984;SDS011;17387;42.690;23.328;2022-07-29T01:12:07;22.30;;;19.90;;
29984;SDS011;17387;42.690;23.328;2022-07-29T01:14:32;28.00;;;20.60;;
29984;SDS011;17387;42.690;23.328;2022-07-29T01:17:02;22.52;;;20.13;;
29984;SDS011;17387;42.690;23.328;2022-07-29T01:19:50;23.00;;;19.90;;
29984;SDS011;17387;42.690;23.328;2022-07-29T01:27:47;21.52;;;19.23;;
29984;SDS011;17387;42.690;23.328;2022-07-29T01:30:26;22.25;;;19.30;;
29984;SDS011;17387;42.690;23.328;2022-07-29T01:32:56;21.48;;;19.23;;
29984;SDS011;17387;42.690;23.328;2022-07-29T01:35:28;22.25;;;19.45;;
29984;SDS011;17387;42.690;23.328;2022-07-29T01:38:09;21.38;;;18.63;;
29984;SDS011;17387;42.690;23.328;2022-07-29T01:40:48;20.55;;;18.30;;
29984;SDS011;17387;42.690;23.328;2022-07-29T01:43:21;21.75;;;19.13;;
29984;SDS011;17387;42.690;23.328;2022-07-29T01:46:01;22.33;;;19.75;;
29984;SDS011;17387;42.690;23.328;2022-07-29T01:48:31;21.52;;;19.23;;
29984;SDS011;17387;42.690;23.328;2022-07-29T01:51:07;23.10;;;19.42;;
29984;SDS011;17387;42.690;23.328;2022-07-29T01:53:42;24.60;;;19.98;;
29984;SDS011;17387;42.690;23.328;2022-07-29T01:56:12;25.30;;;19.67;;
29984;SDS011;17387;42.690;23.328;2022-07-29T01:58:40;23.15;;;19.85;;
29984;SDS011;17387;42.690;23.328;2022-07-29T02:01:08;24.45;;;20.10;;
29984;SDS011;17387;42.690;23.328;2022-07-29T02:03:35;24.98;;;20.42;;
29984;SDS011;17387;42.690;23.328;2022-07-29T02:06:03;23.27;;;19.73;;
29984;SDS011;17387;42.690;23.328;2022-07-29T02:08:31;23.13;;;20.10;;
29984;SDS011;17387;42.690;23.328;2022-07-29T02:10:59;24.85;;;21.20;;
29984;SDS011;17387;42.690;23.328;2022-07-29T02:13:26;22.70;;;20.25;;
29984;SDS011;17387;42.690;23.328;2022-07-29T02:15:53;24.42;;;20.60;;
29984;SDS011;17387;42.690;23.328;2022-07-29T02:18:22;26.52;;;22.40;;
29984;SDS011;17387;42.690;23.328;2022-07-29T02:20:50;27.27;;;21.02;;
29984;SDS011;17387;42.690;23.328;2022-07-29T02:23:19;24.70;;;19.95;;
29984;SDS011;17387;42.690;23.328;2022-07-29T02:25:48;23.25;;;19.42;;
29984;SDS011;17387;42.690;23.328;2022-07-29T02:30:44;20.85;;;18.40;;
29984;SDS011;17387;42.690;23.328;2022-07-29T02:33:12;22.23;;;19.08;;
29984;SDS011;17387;42.690;23.328;2022-07-29T02:35:38;22.38;;;19.80;;
29984;SDS011;17387;42.690;23.328;2022-07-29T02:38:05;21.55;;;19.23;;
29984;SDS011;17387;42.690;23.328;2022-07-29T02:40:51;25.23;;;19.45;;
29984;SDS011;17387;42.690;23.328;2022-07-29T02:43:18;21.90;;;19.40;;
29984;SDS011;17387;42.690;23.328;2022-07-29T02:45:46;24.15;;;19.15;;
29984;SDS011;17387;42.690;23.328;2022-07-29T02:48:14;24.02;;;20.08;;
29984;SDS011;17387;42.690;23.328;2022-07-29T02:50:48;21.90;;;18.88;;
29984;SDS011;17387;42.690;23.328;2022-07-29T02:53:20;22.23;;;19.73;;
29984;SDS011;17387;42.690;23.328;2022-07-29T02:55:55;21.63;;;19.17;;
29984;SDS011;17387;42.690;23.328;2022-07-29T02:58:45;25.55;;;18.98;;
29984;SDS011;17387;42.690;23.328;2022-07-29T03:01:13;22.60;;;19.80;;
29984;SDS011;17387;42.690;23.328;2022-07-29T03:03:42;22.75;;;20.20;;
29984;SDS011;17387;42.690;23.328;2022-07-29T03:06:10;24.60;;;20.17;;
29984;SDS011;17387;42.690;23.328;2022-07-29T03:08:38;24.05;;;20.73;;
29984;SDS011;17387;42.690;23.328;2022-07-29T03:11:04;25.48;;;19.42;;
29984;SDS011;17387;42.690;23.328;2022-07-29T03:13:32;26.02;;;19.15;;
29984;SDS011;17387;42.690;23.328;2022-07-29T03:15:58;23.23;;;17.98;;
29984;SDS011;17387;42.690;23.328;2022-07-29T03:18:24;28.05;;;18.92;;
29984;SDS011;17387;42.690;23.328;2022-07-29T03:20:50;24.65;;;17.92;;
29984;SDS011;17387;42.690;23.328;2022-07-29T03:23:19;22.25;;;17.73;;
29984;SDS011;17387;42.690;23.328;2022-07-29T03:25:47;22.73;;;17.55;;
29984;SDS011;17387;42.690;23.328;2022-07-29T03:28:14;20.60;;;18.23;;
29984;SDS011;17387;42.690;23.328;2022-07-29T03:30:39;19.27;;;17.23;;
29984;SDS011;17387;42.690;23.328;2022-07-29T03:33:05;22.05;;;18.40;;
29984;SDS011;17387;42.690;23.328;2022-07-29T03:35:30;21.30;;;18.08;;
29984;SDS011;17387;42.690;23.328;2022-07-29T03:37:56;21.65;;;17.75;;
29984;SDS011;17387;42.690;23.328;2022-07-29T03:40:24;24.48;;;18.42;;
29984;SDS011;17387;42.690;23.328;2022-07-29T03:42:53;21.60;;;16.92;;
29984;SDS011;17387;42.690;23.328;2022-07-29T03:45:20;20.95;;;16.88;;
29984;SDS011;17387;42.690;23.328;2022-07-29T03:47:50;20.55;;;16.67;;
29984;SDS011;17387;42.690;23.328;2022-07-29T03:50:18;22.48;;;16.20;;
29984;SDS011;17387;42.690;23.328;2022-07-29T03:52:46;16.67;;;14.80;;
29984;SDS011;17387;42.690;23.328;2022-07-29T03:55:13;19.20;;;14.93;;
29984;SDS011;17387;42.690;23.328;2022-07-29T03:57:39;19.83;;;15.23;;
29984;SDS011;17387;42.690;23.328;2022-07-29T04:00:06;19.35;;;14.50;;
29984;SDS011;17387;42.690;23.328;2022-07-29T04:02:32;17.15;;;14.93;;
29984;SDS011;17387;42.690;23.328;2022-07-29T04:04:58;18.15;;;15.25;;
29984;SDS011;17387;42.690;23.328;2022-07-29T04:07:24;17.50;;;13.40;;
29984;SDS011;17387;42.690;23.328;2022-07-29T04:09:49;15.32;;;13.63;;
29984;SDS011;17387;42.690;23.328;2022-07-29T04:12:15;15.32;;;13.55;;
29984;SDS011;17387;42.690;23.328;2022-07-29T04:14:40;16.17;;;13.45;;
29984;SDS011;17387;42.690;23.328;2022-07-29T04:17:06;15.45;;;12.80;;
29984;SDS011;17387;42.690;23.328;2022-07-29T04:19:31;17.23;;;13.63;;
29984;SDS011;17387;42.690;23.328;2022-07-29T04:21:57;17.25;;;13.85;;
29984;SDS011;17387;42.690;23.328;2022-07-29T04:24:24;16.80;;;13.25;;
29984;SDS011;17387;42.690;23.328;2022-07-29T04:26:50;17.67;;;14.13;;
29984;SDS011;17387;42.690;23.328;2022-07-29T04:29:15;17.50;;;13.98;;
29984;SDS011;17387;42.690;23.328;2022-07-29T04:31:41;16.80;;;14.70;;
29984;SDS011;17387;42.690;23.328;2022-07-29T04:34:07;18.15;;;14.23;;
29984;SDS011;17387;42.690;23.328;2022-07-29T04:36:32;18.05;;;14.00;;
29984;SDS011;17387;42.690;23.328;2022-07-29T04:38:58;19.92;;;14.40;;
29984;SDS011;17387;42.690;23.328;2022-07-29T04:41:24;15.43;;;13.82;;
29984;SDS011;17387;42.690;23.328;2022-07-29T04:43:49;19.52;;;14.27;;
29984;SDS011;17387;42.690;23.328;2022-07-29T04:46:15;16.75;;;13.20;;
29984;SDS011;17387;42.690;23.328;2022-07-29T04:48:40;15.18;;;13.05;;
29984;SDS011;17387;42.690;23.328;2022-07-29T04:51:06;19.60;;;13.82;;
29984;SDS011;17387;42.690;23.328;2022-07-29T04:53:32;19.20;;;12.70;;
29984;SDS011;17387;42.690;23.328;2022-07-29T04:55:57;18.65;;;13.20;;
29984;SDS011;17387;42.690;23.328;2022-07-29T04:58:23;14.18;;;12.20;;
29984;SDS011;17387;42.690;23.328;2022-07-29T05:00:48;16.55;;;11.20;;
29984;SDS011;17387;42.690;23.328;2022-07-29T05:03:14;16.30;;;11.68;;
29984;SDS011;17387;42.690;23.328;2022-07-29T05:05:40;15.68;;;11.40;;
29984;SDS011;17387;42.690;23.328;2022-07-29T05:08:05;15.85;;;11.60;;
29984;SDS011;17387;42.690;23.328;2022-07-29T05:10:31;11.77;;;10.68;;
29984;SDS011;17387;42.690;23.328;2022-07-29T05:12:57;14.50;;;11.35;;
29984;SDS011;17387;42.690;23.328;2022-07-29T05:15:23;14.35;;;10.55;;
29984;SDS011;17387;42.690;23.328;2022-07-29T05:17:48;19.92;;;10.85;;
29984;SDS011;17387;42.690;23.328;2022-07-29T05:20:14;14.00;;;11.15;;
29984;SDS011;17387;42.690;23.328;2022-07-29T05:22:39;17.33;;;11.25;;
29984;SDS011;17387;42.690;23.328;2022-07-29T05:25:05;16.23;;;11.40;;
29984;SDS011;17387;42.690;23.328;2022-07-29T05:27:31;11.52;;;10.32;;
29984;SDS011;17387;42.690;23.328;2022-07-29T05:29:56;17.95;;;10.48;;
29984;SDS011;17387;42.690;23.328;2022-07-29T05:32:22;17.45;;;10.82;;
29984;SDS011;17387;42.690;23.328;2022-07-29T05:34:47;14.85;;;9.85;;
29984;SDS011;17387;42.690;23.328;2022-07-29T05:37:12;15.55;;;9.95;;
29984;SDS011;17387;42.690;23.328;2022-07-29T05:39:38;13.52;;;10.48;;
29984;SDS011;17387;42.690;23.328;2022-07-29T05:42:07;21.65;;;10.07;;
29984;SDS011;17387;42.690;23.328;2022-07-29T05:44:37;14.02;;;10.10;;
29984;SDS011;17387;42.690;23.328;2022-07-29T05:47:05;14.17;;;9.53;;
29984;SDS011;17387;42.690;23.328;2022-07-29T05:49:31;14.75;;;9.93;;
29984;SDS011;17387;42.690;23.328;2022-07-29T05:51:57;10.13;;;8.30;;
29984;SDS011;17387;42.690;23.328;2022-07-29T05:54:23;9.70;;;7.35;;
29984;SDS011;17387;42.690;23.328;2022-07-29T05:56:48;10.40;;;7.40;;
29984;SDS011;17387;42.690;23.328;2022-07-29T05:59:14;11.00;;;7.05;;
29984;SDS011;17387;42.690;23.328;2022-07-29T06:01:39;16.33;;;7.68;;
29984;SDS011;17387;42.690;23.328;2022-07-29T06:04:05;9.95;;;6.95;;
29984;SDS011;17387;42.690;23.328;2022-07-29T06:06:31;10.57;;;7.18;;
29984;SDS011;17387;42.690;23.328;2022-07-29T06:08:57;11.18;;;7.80;;
29984;SDS011;17387;42.690;23.328;2022-07-29T06:11:23;8.38;;;7.15;;
29984;SDS011;17387;42.690;23.328;2022-07-29T06:13:48;10.85;;;7.75;;
29984;SDS011;17387;42.690;23.328;2022-07-29T06:16:13;13.23;;;7.22;;
29984;SDS011;17387;42.690;23.328;2022-07-29T06:18:39;10.77;;;7.15;;
29984;SDS011;17387;42.690;23.328;2022-07-29T06:21:08;9.95;;;7.70;;
29984;SDS011;17387;42.690;23.328;2022-07-29T06:23:37;10.38;;;7.53;;
29984;SDS011;17387;42.690;23.328;2022-07-29T06:26:03;8.07;;;7.22;;
29984;SDS011;17387;42.690;23.328;2022-07-29T06:28:29;11.18;;;8.93;;
29984;SDS011;17387;42.690;23.328;2022-07-29T06:30:55;10.05;;;8.20;;
29984;SDS011;17387;42.690;23.328;2022-07-29T06:33:20;11.13;;;6.97;;
29984;SDS011;17387;42.690;23.328;2022-07-29T06:35:45;10.57;;;7.57;;
29984;SDS011;17387;42.690;23.328;2022-07-29T06:38:14;11.60;;;7.40;;
29984;SDS011;17387;42.690;23.328;2022-07-29T06:40:43;9.25;;;7.10;;
29984;SDS011;17387;42.690;23.328;2022-07-29T06:43:28;11.15;;;7.55;;
29984;SDS011;17387;42.690;23.328;2022-07-29T06:46:10;9.10;;;7.15;;
29984;SDS011;17387;42.690;23.328;2022-07-29T06:48:37;10.77;;;7.93;;
29984;SDS011;17387;42.690;23.328;2022-07-29T06:51:04;10.45;;;7.57;;
29984;SDS011;17387;42.690;23.328;2022-07-29T06:53:30;15.13;;;9.38;;
29984;SDS011;17387;42.690;23.328;2022-07-29T06:55:57;11.90;;;7.43;;
29984;SDS011;17387;42.690;23.328;2022-07-29T06:58:24;12.95;;;7.82;;
29984;SDS011;17387;42.690;23.328;2022-07-29T07:00:50;10.43;;;6.93;;
29984;SDS011;17387;42.690;23.328;2022-07-29T07:03:16;9.25;;;6.50;;
29984;SDS011;17387;42.690;23.328;2022-07-29T07:05:42;10.95;;;6.47;;
29984;SDS011;17387;42.690;23.328;2022-07-29T07:08:08;10.23;;;6.55;;
29984;SDS011;17387;42.690;23.328;2022-07-29T07:10:34;11.50;;;6.95;;
29984;SDS011;17387;42.690;23.328;2022-07-29T07:12:59;10.90;;;6.15;;
29984;SDS011;17387;42.690;23.328;2022-07-29T07:15:26;9.80;;;6.72;;
29984;SDS011;17387;42.690;23.328;2022-07-29T07:17:52;11.13;;;6.50;;
29984;SDS011;17387;42.690;23.328;2022-07-29T07:20:17;8.88;;;6.32;;
29984;SDS011;17387;42.690;23.328;2022-07-29T07:22:43;10.55;;;5.90;;
29984;SDS011;17387;42.690;23.328;2022-07-29T07:25:10;8.93;;;6.03;;
29984;SDS011;17387;42.690;23.328;2022-07-29T07:27:36;6.63;;;5.95;;
29984;SDS011;17387;42.690;23.328;2022-07-29T07:30:03;9.30;;;6.05;;
29984;SDS011;17387;42.690;23.328;2022-07-29T07:32:30;10.57;;;5.78;;
29984;SDS011;17387;42.690;23.328;2022-07-29T07:34:57;7.10;;;5.57;;
29984;SDS011;17387;42.690;23.328;2022-07-29T07:37:22;14.07;;;7.30;;
29984;SDS011;17387;42.690;23.328;2022-07-29T07:39:49;6.72;;;5.68;;
29984;SDS011;17387;42.690;23.328;2022-07-29T07:42:15;7.70;;;6.25;;
29984;SDS011;17387;42.690;23.328;2022-07-29T07:44:40;7.32;;;5.30;;
29984;SDS011;17387;42.690;23.328;2022-07-29T07:47:06;11.13;;;5.78;;
29984;SDS011;17387;42.690;23.328;2022-07-29T07:49:31;7.47;;;6.22;;
29984;SDS011;17387;42.690;23.328;2022-07-29T07:51:57;11.23;;;6.93;;
29984;SDS011;17387;42.690;23.328;2022-07-29T07:54:22;12.65;;;8.52;;
29984;SDS011;17387;42.690;23.328;2022-07-29T07:56:48;11.93;;;6.63;;
29984;SDS011;17387;42.690;23.328;2022-07-29T07:59:14;10.35;;;5.18;;
29984;SDS011;17387;42.690;23.328;2022-07-29T08:01:40;6.70;;;5.15;;
29984;SDS011;17387;42.690;23.328;2022-07-29T08:04:06;11.30;;;6.65;;
29984;SDS011;17387;42.690;23.328;2022-07-29T08:06:32;12.32;;;8.20;;
29984;SDS011;17387;42.690;23.328;2022-07-29T08:08:59;13.30;;;7.32;;
29984;SDS011;17387;42.690;23.328;2022-07-29T08:11:25;9.68;;;6.82;;
29984;SDS011;17387;42.690;23.328;2022-07-29T08:13:51;6.40;;;4.82;;
29984;SDS011;17387;42.690;23.328;2022-07-29T08:16:17;9.20;;;5.88;;
29984;SDS011;17387;42.690;23.328;2022-07-29T08:18:43;7.22;;;5.28;;
29984;SDS011;17387;42.690;23.328;2022-07-29T08:21:09;9.23;;;5.20;;
29984;SDS011;17387;42.690;23.328;2022-07-29T08:23:35;5.53;;;4.75;;
29984;SDS011;17387;42.690;23.328;2022-07-29T08:26:05;5.32;;;4.80;;
29984;SDS011;17387;42.690;23.328;2022-07-29T08:28:31;9.02;;;6.40;;
29984;SDS011;17387;42.690;23.328;2022-07-29T08:30:56;7.40;;;4.93;;
29984;SDS011;17387;42.690;23.328;2022-07-29T08:33:21;5.13;;;4.40;;
29984;SDS011;17387;42.690;23.328;2022-07-29T08:35:47;13.27;;;6.28;;
29984;SDS011;17387;42.690;23.328;2022-07-29T08:38:14;6.43;;;4.40;;
29984;SDS011;17387;42.690;23.328;2022-07-29T08:40:40;6.40;;;4.20;;
29984;SDS011;17387;42.690;23.328;2022-07-29T08:43:08;6.63;;;4.97;;
29984;SDS011;17387;42.690;23.328;2022-07-29T08:45:37;7.15;;;4.20;;
29984;SDS011;17387;42.690;23.328;2022-07-29T08:48:08;9.77;;;4.45;;
29984;SDS011;17387;42.690;23.328;2022-07-29T08:50:35;6.47;;;4.60;;
29984;SDS011;17387;42.690;23.328;2022-07-29T08:53:01;6.07;;;4.50;;
29984;SDS011;17387;42.690;23.328;2022-07-29T08:55:27;5.70;;;4.70;;
29984;SDS011;17387;42.690;23.328;2022-07-29T08:57:53;8.40;;;4.65;;
29984;SDS011;17387;42.690;23.328;2022-07-29T09:00:20;10.73;;;5.93;;
29984;SDS011;17387;42.690;23.328;2022-07-29T09:02:47;8.38;;;6.10;;
29984;SDS011;17387;42.690;23.328;2022-07-29T09:05:22;17.23;;;4.80;;
29984;SDS011;17387;42.690;23.328;2022-07-29T09:07:50;5.03;;;3.72;;
29984;SDS011;17387;42.690;23.328;2022-07-29T09:10:15;5.22;;;4.40;;
29984;SDS011;17387;42.690;23.328;2022-07-29T09:12:41;7.97;;;5.43;;
29984;SDS011;17387;42.690;23.328;2022-07-29T09:15:07;8.55;;;5.25;;
29984;SDS011;17387;42.690;23.328;2022-07-29T09:17:46;12.73;;;7.93;;
29984;SDS011;17387;42.690;23.328;2022-07-29T09:20:18;8.73;;;4.97;;
29984;SDS011;17387;42.690;23.328;2022-07-29T09:22:46;7.60;;;5.30;;
29984;SDS011;17387;42.690;23.328;2022-07-29T09:25:31;7.85;;;5.22;;
29984;SDS011;17387;42.690;23.328;2022-07-29T09:28:05;7.05;;;4.40;;
29984;SDS011;17387;42.690;23.328;2022-07-29T09:30:35;10.98;;;4.32;;
29984;SDS011;17387;42.690;23.328;2022-07-29T09:33:01;8.10;;;5.28;;
29984;SDS011;17387;42.690;23.328;2022-07-29T09:35:29;6.40;;;4.68;;
29984;SDS011;17387;42.690;23.328;2022-07-29T09:37:55;4.82;;;4.32;;
29984;SDS011;17387;42.690;23.328;2022-07-29T09:40:25;6.20;;;4.43;;
29984;SDS011;17387;42.690;23.328;2022-07-29T09:45:34;6.35;;;4.68;;
29984;SDS011;17387;42.690;23.328;2022-07-29T09:48:00;6.70;;;4.70;;
29984;SDS011;17387;42.690;23.328;2022-07-29T09:50:39;6.43;;;5.32;;
29984;SDS011;17387;42.690;23.328;2022-07-29T09:53:05;7.53;;;5.20;;
29984;SDS011;17387;42.690;23.328;2022-07-29T09:55:31;7.13;;;4.93;;
29984;SDS011;17387;42.690;23.328;2022-07-29T09:58:16;17.42;;;7.43;;
29984;SDS011;17387;42.690;23.328;2022-07-29T10:00:42;6.13;;;4.95;;
29984;SDS011;17387;42.690;23.328;2022-07-29T10:03:08;10.43;;;5.22;;
29984;SDS011;17387;42.690;23.328;2022-07-29T10:05:34;5.18;;;4.40;;
29984;SDS011;17387;42.690;23.328;2022-07-29T10:07:59;8.65;;;5.97;;
29984;SDS011;17387;42.690;23.328;2022-07-29T10:10:26;6.75;;;4.57;;
29984;SDS011;17387;42.690;23.328;2022-07-29T10:12:54;8.35;;;6.40;;
29984;SDS011;17387;42.690;23.328;2022-07-29T10:15:25;17.23;;;6.30;;
29984;SDS011;17387;42.690;23.328;2022-07-29T10:17:53;7.18;;;4.47;;
29984;SDS011;17387;42.690;23.328;2022-07-29T10:20:20;6.38;;;5.43;;
29984;SDS011;17387;42.690;23.328;2022-07-29T10:22:47;5.13;;;4.30;;
29984;SDS011;17387;42.690;23.328;2022-07-29T10:25:14;5.95;;;4.40;;
29984;SDS011;17387;42.690;23.328;2022-07-29T10:27:41;7.18;;;4.20;;
29984;SDS011;17387;42.690;23.328;2022-07-29T10:30:07;6.45;;;4.32;;
29984;SDS011;17387;42.690;23.328;2022-07-29T10:35:38;6.60;;;4.78;;
29984;SDS011;17387;42.690;23.328;2022-07-29T10:43:36;8.18;;;3.92;;
29984;SDS011;17387;42.690;23.328;2022-07-29T10:46:07;7.30;;;5.60;;
29984;SDS011;17387;42.690;23.328;2022-07-29T10:48:33;11.13;;;6.13;;
29984;SDS011;17387;42.690;23.328;2022-07-29T10:51:00;6.13;;;4.40;;
29984;SDS011;17387;42.690;23.328;2022-07-29T10:53:49;8.55;;;5.47;;
29984;SDS011;17387;42.690;23.328;2022-07-29T10:56:26;11.27;;;6.53;;
29984;SDS011;17387;42.690;23.328;2022-07-29T11:01:43;9.10;;;4.10;;
29984;SDS011;17387;42.690;23.328;2022-07-29T11:04:09;6.72;;;4.25;;
29984;SDS011;17387;42.690;23.328;2022-07-29T11:09:32;6.95;;;4.47;;
29984;SDS011;17387;42.690;23.328;2022-07-29T11:11:58;6.05;;;4.78;;
29984;SDS011;17387;42.690;23.328;2022-07-29T11:17:25;4.72;;;4.22;;
29984;SDS011;17387;42.690;23.328;2022-07-29T11:19:51;5.90;;;5.32;;
29984;SDS011;17387;42.690;23.328;2022-07-29T11:22:35;7.55;;;5.78;;
29984;SDS011;17387;42.690;23.328;2022-07-29T11:25:14;4.55;;;4.10;;
29984;SDS011;17387;42.690;23.328;2022-07-29T11:27:41;5.88;;;5.03;;
29984;SDS011;17387;42.690;23.328;2022-07-29T11:30:07;7.45;;;4.90;;
29984;SDS011;17387;42.690;23.328;2022-07-29T11:32:38;6.82;;;5.03;;
29984;SDS011;17387;42.690;23.328;2022-07-29T11:38:22;10.48;;;5.50;;
29984;SDS011;17387;42.690;23.328;2022-07-29T11:49:20;7.97;;;5.40;;
29984;SDS011;17387;42.690;23.328;2022-07-29T11:51:53;7.38;;;5.35;;
29984;SDS011;17387;42.690;23.328;2022-07-29T11:54:29;8.88;;;5.50;;
29984;SDS011;17387;42.690;23.328;2022-07-29T11:56:57;7.68;;;5.35;;
29984;SDS011;17387;42.690;23.328;2022-07-29T11:59:24;8.38;;;5.63;;
29984;SDS011;17387;42.690;23.328;2022-07-29T12:01:53;6.55;;;5.80;;
29984;SDS011;17387;42.690;23.328;2022-07-29T12:04:19;6.63;;;5.35;;
29984;SDS011;17387;42.690;23.328;2022-07-29T12:06:51;6.75;;;5.85;;
29984;SDS011;17387;42.690;23.328;2022-07-29T12:09:18;7.60;;;6.95;;
29984;SDS011;17387;42.690;23.328;2022-07-29T12:11:44;10.63;;;6.20;;
29984;SDS011;17387;42.690;23.328;2022-07-29T12:14:30;5.03;;;4.50;;
29984;SDS011;17387;42.690;23.328;2022-07-29T12:16:57;9.10;;;5.03;;
29984;SDS011;17387;42.690;23.328;2022-07-29T12:19:24;7.38;;;5.20;;
29984;SDS011;17387;42.690;23.328;2022-07-29T12:21:53;6.05;;;5.38;;
29984;SDS011;17387;42.690;23.328;2022-07-29T12:24:20;6.65;;;5.07;;
29984;SDS011;17387;42.690;23.328;2022-07-29T12:26:53;8.10;;;6.20;;
29984;SDS011;17387;42.690;23.328;2022-07-29T12:29:20;7.63;;;6.20;;
29984;SDS011;17387;42.690;23.328;2022-07-29T12:31:46;11.13;;;5.93;;
29984;SDS011;17387;42.690;23.328;2022-07-29T12:34:19;5.88;;;5.32;;
29984;SDS011;17387;42.690;23.328;2022-07-29T12:36:47;6.88;;;6.18;;
29984;SDS011;17387;42.690;23.328;2022-07-29T12:39:14;7.70;;;5.45;;
29984;SDS011;17387;42.690;23.328;2022-07-29T12:41:42;6.82;;;5.40;;
29984;SDS011;17387;42.690;23.328;2022-07-29T12:44:08;9.35;;;8.48;;
29984;SDS011;17387;42.690;23.328;2022-07-29T12:46:34;6.68;;;5.75;;
29984;SDS011;17387;42.690;23.328;2022-07-29T12:48:59;5.60;;;5.07;;
29984;SDS011;17387;42.690;23.328;2022-07-29T12:51:32;8.75;;;7.95;;
29984;SDS011;17387;42.690;23.328;2022-07-29T12:54:19;10.07;;;6.38;;
29984;SDS011;17387;42.690;23.328;2022-07-29T12:56:45;7.30;;;6.60;;
29984;SDS011;17387;42.690;23.328;2022-07-29T12:59:11;13.18;;;9.85;;
29984;SDS011;17387;42.690;23.328;2022-07-29T13:01:47;9.60;;;7.97;;
29984;SDS011;17387;42.690;23.328;2022-07-29T13:04:27;6.50;;;5.78;;
29984;SDS011;17387;42.690;23.328;2022-07-29T13:07:01;11.57;;;5.72;;
29984;SDS011;17387;42.690;23.328;2022-07-29T13:12:08;8.02;;;5.75;;
29984;SDS011;17387;42.690;23.328;2022-07-29T13:14:39;5.75;;;5.22;;
29984;SDS011;17387;42.690;23.328;2022-07-29T13:17:11;5.88;;;5.28;;
29984;SDS011;17387;42.690;23.328;2022-07-29T13:19:39;7.15;;;5.75;;
29984;SDS011;17387;42.690;23.328;2022-07-29T13:22:05;9.60;;;6.07;;
29984;SDS011;17387;42.690;23.328;2022-07-29T13:24:32;5.45;;;4.75;;
29984;SDS011;17387;42.690;23.328;2022-07-29T13:26:58;6.10;;;5.43;;
29984;SDS011;17387;42.690;23.328;2022-07-29T13:29:24;5.97;;;5.47;;
29984;SDS011;17387;42.690;23.328;2022-07-29T13:31:51;6.63;;;5.93;;
29984;SDS011;17387;42.690;23.328;2022-07-29T13:34:17;6.05;;;5.40;;
29984;SDS011;17387;42.690;23.328;2022-07-29T13:36:44;7.00;;;6.03;;
29984;SDS011;17387;42.690;23.328;2022-07-29T13:39:09;6.70;;;6.00;;
29984;SDS011;17387;42.690;23.328;2022-07-29T13:41:36;8.32;;;6.38;;
29984;SDS011;17387;42.690;23.328;2022-07-29T13:44:01;7.38;;;5.80;;
29984;SDS011;17387;42.690;23.328;2022-07-29T13:46:27;11.07;;;7.72;;
29984;SDS011;17387;42.690;23.328;2022-07-29T13:48:52;6.32;;;5.72;;
29984;SDS011;17387;42.690;23.328;2022-07-29T13:51:18;9.48;;;6.20;;
29984;SDS011;17387;42.690;23.328;2022-07-29T13:53:43;8.68;;;7.38;;
29984;SDS011;17387;42.690;23.328;2022-07-29T13:56:09;8.00;;;5.70;;
29984;SDS011;17387;42.690;23.328;2022-07-29T13:58:34;10.45;;;6.35;;
29984;SDS011;17387;42.690;23.328;2022-07-29T14:01:00;9.95;;;5.53;;
29984;SDS011;17387;42.690;23.328;2022-07-29T14:03:25;7.30;;;5.20;;
29984;SDS011;17387;42.690;23.328;2022-07-29T14:05:51;6.13;;;5.53;;
29984;SDS011;17387;42.690;23.328;2022-07-29T14:08:17;7.95;;;6.18;;
29984;SDS011;17387;42.690;23.328;2022-07-29T14:10:42;9.30;;;5.93;;
29984;SDS011;17387;42.690;23.328;2022-07-29T14:13:07;12.45;;;6.25;;
29984;SDS011;17387;42.690;23.328;2022-07-29T14:15:33;6.60;;;6.00;;
29984;SDS011;17387;42.690;23.328;2022-07-29T14:17:59;8.63;;;7.07;;
29984;SDS011;17387;42.690;23.328;2022-07-29T14:20:24;5.90;;;5.40;;
29984;SDS011;17387;42.690;23.328;2022-07-29T14:22:50;7.93;;;5.55;;
29984;SDS011;17387;42.690;23.328;2022-07-29T14:25:15;7.03;;;6.43;;
29984;SDS011;17387;42.690;23.328;2022-07-29T14:27:41;7.75;;;5.53;;
29984;SDS011;17387;42.690;23.328;2022-07-29T14:30:08;8.02;;;5.82;;
29984;SDS011;17387;42.690;23.328;2022-07-29T14:32:34;7.38;;;5.90;;
29984;SDS011;17387;42.690;23.328;2022-07-29T14:34:59;6.05;;;5.50;;
29984;SDS011;17387;42.690;23.328;2022-07-29T14:37:25;10.35;;;7.13;;
29984;SDS011;17387;42.690;23.328;2022-07-29T14:39:50;8.20;;;5.25;;
29984;SDS011;17387;42.690;23.328;2022-07-29T14:42:15;7.88;;;5.82;;
29984;SDS011;17387;42.690;23.328;2022-07-29T14:44:41;9.40;;;6.30;;
29984;SDS011;17387;42.690;23.328;2022-07-29T14:47:06;6.38;;;5.78;;
29984;SDS011;17387;42.690;23.328;2022-07-29T14:49:32;6.47;;;5.57;;
29984;SDS011;17387;42.690;23.328;2022-07-29T14:51:57;7.63;;;5.85;;
29984;SDS011;17387;42.690;23.328;2022-07-29T14:54:23;18.08;;;11.35;;
29984;SDS011;17387;42.690;23.328;2022-07-29T14:56:48;34.70;;;23.13;;
29984;SDS011;17387;42.690;23.328;2022-07-29T14:59:15;14.63;;;10.25;;
29984;SDS011;17387;42.690;23.328;2022-07-29T15:01:41;9.43;;;5.75;;
29984;SDS011;17387;42.690;23.328;2022-07-29T15:04:07;18.92;;;14.82;;
29984;SDS011;17387;42.690;23.328;2022-07-29T15:06:33;8.63;;;7.03;;